createdAt,value
2023-04-18T00:01:48.942Z,102757.44
2023-04-18T00:06:51.885Z,102751.69
2023-04-18T00:11:54.606Z,102755.31
2023-04-18T00:16:58.466Z,102753.47
2023-04-18T00:22:01.436Z,102751.84
2023-04-18T00:27:03.987Z,102752.63
2023-04-18T00:32:07.955Z,102744.66
2023-04-18T00:37:10.462Z,102745.25
2023-04-18T00:42:12.980Z,102738.91
2023-04-18T00:47:18.060Z,102739.34
2023-04-18T00:52:21.478Z,102750.19
2023-04-18T00:57:24.429Z,102744.47
2023-04-18T01:02:31.323Z,102738.50
2023-04-18T01:07:37.201Z,102748.50
2023-04-18T01:12:40.170Z,102739.00
2023-04-18T01:17:44.045Z,102744.66
2023-04-18T01:22:46.629Z,102741.88
2023-04-18T01:27:51.558Z,102749.31
2023-04-18T01:32:54.276Z,102757.31
2023-04-18T01:37:57.428Z,102748.75
2023-04-18T01:43:01.352Z,102753.94
2023-04-18T01:48:03.915Z,102748.41
2023-04-18T01:53:06.460Z,102740.84
2023-04-18T01:58:10.343Z,102751.84
2023-04-18T02:03:13.066Z,102748.91
2023-04-18T02:08:15.901Z,102751.16
2023-04-18T02:13:19.719Z,102750.81
2023-04-18T02:18:24.674Z,102748.63
2023-04-18T02:23:27.215Z,102750.16
2023-04-18T02:28:31.037Z,102744.00
2023-04-18T02:33:33.553Z,102754.97
2023-04-18T02:38:36.033Z,102753.72
2023-04-18T02:43:39.898Z,102758.19
2023-04-18T02:48:42.376Z,102760.25
2023-04-18T02:53:44.887Z,102756.81
2023-04-18T02:58:48.867Z,102761.09
2023-04-18T03:03:51.550Z,102760.59
2023-04-18T03:08:54.181Z,102756.34
2023-04-18T03:13:58.013Z,102769.06
2023-04-18T03:19:01.481Z,102772.47
2023-04-18T03:24:04.050Z,102780.66
2023-04-18T03:29:07.848Z,102767.88
2023-04-18T03:34:10.313Z,102777.53
2023-04-18T03:39:12.805Z,102773.97
2023-04-18T03:44:16.767Z,102773.16
2023-04-18T03:49:19.380Z,102775.88
2023-04-18T03:54:21.849Z,102763.00
2023-04-18T03:59:25.698Z,102753.47
2023-04-18T04:04:28.271Z,102777.91
2023-04-18T04:09:30.817Z,102777.50
2023-04-18T04:14:34.696Z,102772.81
2023-04-18T04:19:37.214Z,102789.31
2023-04-18T04:24:40.383Z,102785.19
2023-04-18T04:29:44.233Z,102792.00
2023-04-18T04:34:47.264Z,102796.19
2023-04-18T04:39:49.728Z,102793.69
2023-04-18T04:44:54.200Z,102791.22
2023-04-18T04:49:56.980Z,102798.91
2023-04-18T04:54:59.521Z,102809.47
2023-04-18T05:00:05.982Z,102804.91
2023-04-18T05:05:09.288Z,102802.41
2023-04-18T05:10:11.920Z,102802.81
2023-04-18T05:15:16.370Z,102817.03
2023-04-18T05:20:18.886Z,102827.69
2023-04-18T05:25:21.446Z,102815.66
2023-04-18T05:30:25.284Z,102822.22
2023-04-18T05:35:27.816Z,102825.66
2023-04-18T05:40:30.847Z,102820.81
2023-04-18T05:45:34.798Z,102825.50
2023-04-18T05:50:37.437Z,102831.09
2023-04-18T05:55:41.159Z,102821.22
2023-04-18T06:00:45.296Z,102816.03
2023-04-18T06:05:47.983Z,102822.06
2023-04-18T06:10:50.656Z,102830.63
2023-04-18T06:15:54.587Z,102838.47
2023-04-18T06:20:57.105Z,102838.97
2023-04-18T06:25:59.799Z,102849.97
2023-04-18T06:31:03.703Z,102846.44
2023-04-18T06:36:07.236Z,102843.09
2023-04-18T06:41:09.755Z,102849.91
2023-04-18T06:46:13.942Z,102851.94
2023-04-18T06:51:16.541Z,102853.16
2023-04-18T06:56:19.288Z,102858.84
2023-04-18T07:01:23.198Z,102860.13
2023-04-18T07:06:26.251Z,102864.44
2023-04-18T07:11:29.180Z,102869.19
2023-04-18T07:16:32.973Z,102861.22
2023-04-18T07:21:35.502Z,102857.06
2023-04-18T07:26:38.123Z,102865.53
2023-04-18T07:31:42.077Z,102861.88
2023-04-18T07:36:44.662Z,102852.78
2023-04-18T07:41:47.183Z,102860.63
2023-04-18T07:46:51.021Z,102867.38
2023-04-18T07:51:53.551Z,102869.56
2023-04-18T07:56:56.592Z,102871.53
2023-04-18T08:02:00.563Z,102876.03
2023-04-18T08:07:03.109Z,102874.59
2023-04-18T08:12:06.237Z,102881.22
2023-04-18T08:17:10.170Z,102888.13
2023-04-18T08:22:12.809Z,102873.00
2023-04-18T08:27:15.358Z,102882.19
2023-04-18T08:32:19.286Z,102883.72
2023-04-18T08:37:21.821Z,102882.75
2023-04-18T08:42:24.873Z,102874.41
2023-04-18T08:47:29.938Z,102873.41
2023-04-18T08:52:34.090Z,102882.34
2023-04-18T08:57:37.165Z,102892.56
2023-04-18T09:02:43.642Z,102876.97
2023-04-18T09:07:47.169Z,102887.75
2023-04-18T09:12:50.848Z,102891.69
2023-04-18T09:17:57.797Z,102897.88
2023-04-18T09:23:00.643Z,102905.31
2023-04-18T09:28:04.961Z,102900.00
2023-04-18T09:33:10.365Z,102899.50
2023-04-18T09:38:12.930Z,102892.66
2023-04-18T09:43:20.422Z,102898.31
2023-04-18T09:48:24.312Z,102897.53
2023-04-18T09:53:27.930Z,102895.72
2023-04-18T09:58:33.928Z,102899.47
2023-04-18T10:03:45.414Z,102893.16
2023-04-18T10:08:49.852Z,102893.88
2023-04-18T10:13:56.928Z,102895.75
2023-04-18T10:19:20.523Z,102891.66
2023-04-18T10:24:49.404Z,102881.44
2023-04-18T10:29:53.092Z,102876.75
2023-04-18T10:34:57.089Z,102876.59
2023-04-18T10:40:05.838Z,102871.47
2023-04-18T10:45:18.662Z,102877.06
2023-04-18T10:50:23.036Z,102868.84
2023-04-18T10:55:29.588Z,102869.63
2023-04-18T11:00:32.797Z,102868.00
2023-04-18T11:05:36.668Z,102860.41
2023-04-18T11:10:39.830Z,102867.97
2023-04-18T11:15:42.337Z,102851.16
2023-04-18T11:20:50.036Z,102854.94
2023-04-18T11:25:53.707Z,102852.28
2023-04-18T11:30:59.464Z,102846.13
2023-04-18T11:36:03.564Z,102850.19
2023-04-18T11:41:06.234Z,102844.47
2023-04-18T11:46:08.895Z,102842.31
2023-04-18T11:51:35.457Z,102840.13
2023-04-18T11:56:38.054Z,102858.03
2023-04-18T12:01:40.727Z,102829.75
2023-04-18T12:06:48.013Z,102837.00
2023-04-18T12:12:01.527Z,102831.50
2023-04-18T12:17:04.660Z,102841.94
2023-04-18T12:22:09.669Z,102832.50
2023-04-18T12:27:12.540Z,102840.09
2023-04-18T12:32:16.893Z,102838.16
2023-04-18T12:37:25.463Z,102838.28
2023-04-18T12:42:28.054Z,102834.00
2023-04-18T12:47:31.535Z,102833.31
2023-04-18T12:52:38.200Z,102834.81
2023-04-18T12:57:42.492Z,102819.66
2023-04-18T13:02:46.026Z,102828.97
2023-04-18T13:07:50.833Z,102832.06
2023-04-18T13:12:53.946Z,102823.44
2023-04-18T13:17:57.228Z,102827.69
2023-04-18T13:23:01.379Z,102829.16
2023-04-18T13:28:03.888Z,102838.13
2023-04-18T13:33:06.551Z,102834.38
2023-04-18T13:38:11.097Z,102836.53
2023-04-18T13:43:15.323Z,102849.75
2023-04-18T13:48:17.965Z,102837.44
2023-04-18T13:53:21.913Z,102838.50
2023-04-18T13:58:24.428Z,102844.47
2023-04-18T14:03:26.998Z,102856.88
2023-04-18T14:08:31.047Z,102850.19
2023-04-18T14:13:33.705Z,102849.38
2023-04-18T14:18:36.644Z,102841.56
2023-04-18T14:23:40.515Z,102847.22
2023-04-18T14:28:43.037Z,102844.56
2023-04-18T14:33:46.233Z,102850.28
2023-04-18T14:38:50.221Z,102843.13
2023-04-18T14:43:52.747Z,102837.28
2023-04-18T14:48:55.229Z,102841.66
2023-04-18T14:53:59.158Z,102863.38
2023-04-18T14:59:02.636Z,102843.84
2023-04-18T15:04:05.873Z,102848.09
2023-04-18T15:09:09.799Z,102843.72
2023-04-18T15:14:12.575Z,102847.41
2023-04-18T15:19:15.316Z,102845.09
2023-04-18T15:24:19.151Z,102839.59
2023-04-18T15:29:21.689Z,102847.09
2023-04-18T15:34:25.494Z,102846.97
2023-04-18T15:39:29.359Z,102856.34
2023-04-18T15:44:31.838Z,102861.28
2023-04-18T15:49:34.383Z,102864.22
2023-04-18T15:54:41.433Z,102865.97
2023-04-18T15:59:43.998Z,102856.19
2023-04-18T16:04:46.691Z,102856.25
2023-04-18T16:09:50.648Z,102856.38
2023-04-18T16:14:53.146Z,102866.22
2023-04-18T16:19:55.658Z,102857.41
2023-04-18T16:24:59.519Z,102864.81
2023-04-18T16:30:02.145Z,102861.00
2023-04-18T16:35:06.261Z,102860.81
2023-04-18T16:40:10.735Z,102860.06
2023-04-18T16:45:13.287Z,102867.16
2023-04-18T16:50:16.009Z,102869.28
2023-04-18T16:55:20.200Z,102869.56
2023-04-18T17:00:22.800Z,102867.22
2023-04-18T17:05:26.749Z,102872.78
2023-04-18T17:10:31.358Z,102883.75
2023-04-18T17:15:34.121Z,102881.88
2023-04-18T17:20:37.328Z,102885.81
2023-04-18T17:25:41.248Z,102887.53
2023-04-18T17:30:44.083Z,102888.41
2023-04-18T17:35:47.070Z,102896.06
2023-04-18T17:40:58.760Z,102888.91
2023-04-18T17:46:03.599Z,102907.91
2023-04-18T17:51:06.296Z,102898.78
2023-04-18T17:56:10.593Z,102907.53
2023-04-18T18:01:16.671Z,102907.66
2023-04-18T18:06:19.284Z,102913.53
2023-04-18T18:11:23.702Z,102913.63
2023-04-18T18:16:26.318Z,102912.97
2023-04-18T18:21:29.314Z,102921.56
2023-04-18T18:26:33.210Z,102926.63
2023-04-18T18:31:35.992Z,102926.38
2023-04-18T18:36:38.616Z,102934.16
2023-04-18T18:41:42.638Z,102938.22
2023-04-18T18:46:45.465Z,102946.88
2023-04-18T18:51:48.079Z,102932.59
2023-04-18T18:56:51.979Z,102941.25
2023-04-18T19:01:54.594Z,102951.75
2023-04-18T19:06:57.368Z,102942.81
2023-04-18T19:12:01.421Z,102940.38
2023-04-18T19:17:04.876Z,102946.28
2023-04-18T19:22:07.512Z,102953.97
2023-04-18T19:27:11.467Z,102958.59
2023-04-18T19:32:14.229Z,102951.47
2023-04-18T19:37:16.767Z,102945.78
2023-04-18T19:42:20.862Z,102957.50
2023-04-18T19:47:23.424Z,102957.16
2023-04-18T19:52:26.028Z,102957.94
2023-04-18T19:57:30.065Z,102957.25
2023-04-18T20:02:33.105Z,102956.34
2023-04-18T20:07:36.211Z,102957.81
2023-04-18T20:12:40.213Z,102961.38
2023-04-18T20:17:42.913Z,102959.78
2023-04-18T20:22:47.324Z,102962.84
2023-04-18T20:27:51.567Z,102976.50
2023-04-18T20:32:54.337Z,102974.81
2023-04-18T20:37:57.810Z,102982.78
2023-04-18T20:43:02.961Z,102965.66
2023-04-18T20:48:06.418Z,102977.66
2023-04-18T20:53:08.931Z,102977.50
2023-04-18T20:58:12.823Z,102985.63
2023-04-18T21:03:15.791Z,102991.44
2023-04-18T21:08:19.273Z,102990.69
2023-04-18T21:13:23.194Z,102983.44
2023-04-18T21:18:25.825Z,102985.56
2023-04-18T21:23:28.355Z,102976.03
2023-04-18T21:28:32.213Z,102976.31
2023-04-18T21:33:34.803Z,102976.56
2023-04-18T21:38:37.320Z,102974.06
2023-04-18T21:43:41.758Z,102968.47
2023-04-18T21:48:45.660Z,102977.78
2023-04-18T21:53:48.223Z,102963.72
2023-04-18T21:58:52.074Z,102972.38
2023-04-18T22:03:54.794Z,102961.19
2023-04-18T22:08:58.227Z,102958.25
2023-04-18T22:14:02.214Z,102958.34
2023-04-18T22:19:05.661Z,102949.00
2023-04-18T22:24:09.677Z,102954.00
2023-04-18T22:29:13.756Z,102952.56
2023-04-18T22:34:16.525Z,102951.13
2023-04-18T22:39:19.157Z,102942.06
2023-04-18T22:44:23.036Z,102948.53
2023-04-18T22:49:26.089Z,102941.34
2023-04-18T22:54:28.570Z,102940.94
2023-04-18T22:59:32.587Z,102938.50
2023-04-18T23:04:35.275Z,102929.34
2023-04-18T23:09:37.890Z,102922.59
2023-04-18T23:14:42.514Z,102932.09
2023-04-18T23:19:45.869Z,102926.16
2023-04-18T23:24:48.366Z,102928.59
2023-04-18T23:29:52.213Z,102929.34
2023-04-18T23:34:54.769Z,102923.78
2023-04-18T23:39:57.286Z,102911.50
2023-04-18T23:45:01.156Z,102911.00
2023-04-18T23:50:03.714Z,102905.44
2023-04-18T23:55:07.078Z,102907.28
